Time;durP1;ratioP1;P1;durP2;ratioP2;P2;SDS_P1;SDS_P2;PMS_P1;PMS_P2;Temp;Humidity;BMP_temperature;BMP_pressure;BME280_temperature;BME280_humidity;BME280_pressure;Samples;Min_cycle;Max_cycle;Signal;HPM_P1;HPM_P2
2023/06/14 00:01:48;;;;;;;4.75;2.53;;;20.20;96.60;;;;;;5074698;28;20025;-34
2023/06/14 00:04:16;;;;;;;3.72;2.65;;;20.20;96.60;;;;;;5075183;28;20379;-34
2023/06/14 00:06:44;;;;;;;2.80;2.30;;;20.20;96.60;;;;;;5073607;28;20044;-37
2023/06/14 00:09:12;;;;;;;4.05;2.22;;;20.10;96.50;;;;;;5074931;28;20028;-36
2023/06/14 00:11:41;;;;;;;3.85;2.38;;;20.10;96.60;;;;;;5074827;28;20024;-34
2023/06/14 00:14:07;;;;;;;3.90;2.55;;;20.10;96.60;;;;;;5074716;28;20028;-37
2023/06/14 00:16:34;;;;;;;2.90;2.10;;;20.10;96.60;;;;;;5074567;28;20031;-36
2023/06/14 00:19:04;;;;;;;3.22;2.33;;;20.10;96.60;;;;;;5074772;28;20074;-34
2023/06/14 00:21:30;;;;;;;2.85;2.33;;;20.10;96.60;;;;;;5074477;28;20117;-34
2023/06/14 00:23:57;;;;;;;3.47;2.38;;;20.10;96.60;;;;;;5074579;28;20028;-35
2023/06/14 00:26:23;;;;;;;4.35;2.60;;;20.10;96.60;;;;;;5074545;28;20020;-34
2023/06/14 00:28:49;;;;;;;3.08;2.30;;;20.10;96.60;;;;;;5074492;28;20364;-36
2023/06/14 00:31:15;;;;;;;4.13;2.38;;;20.10;96.60;;;;;;5074442;28;20047;-35
2023/06/14 00:33:40;;;;;;;3.90;2.30;;;20.10;96.60;;;;;;5074462;28;20070;-35
2023/06/14 00:36:06;;;;;;;2.85;1.90;;;20.10;96.60;;;;;;5074361;28;20032;-36
2023/06/14 00:38:31;;;;;;;4.13;2.35;;;20.10;96.50;;;;;;5074464;28;20029;-34
2023/06/14 00:40:57;;;;;;;3.65;2.35;;;20.10;96.50;;;;;;5074157;28;20032;-36
2023/06/14 00:43:23;;;;;;;5.35;2.50;;;20.10;96.50;;;;;;5074147;28;20025;-35
2023/06/14 00:45:49;;;;;;;3.63;2.22;;;20.10;96.50;;;;;;5074044;28;20028;-37
2023/06/14 00:48:15;;;;;;;3.70;2.33;;;20.10;96.50;;;;;;5074076;28;20024;-35
2023/06/14 00:50:41;;;;;;;5.70;2.40;;;20.10;96.60;;;;;;5073890;28;20024;-35
2023/06/14 00:53:07;;;;;;;4.32;2.42;;;20.10;96.50;;;;;;5074216;28;20032;-35
2023/06/14 00:55:33;;;;;;;2.72;2.10;;;20.10;96.50;;;;;;5073989;28;20025;-36
2023/06/14 00:57:59;;;;;;;2.88;2.17;;;20.10;96.50;;;;;;5073929;28;20024;-35
2023/06/14 01:00:25;;;;;;;3.38;2.35;;;20.10;96.50;;;;;;5073874;28;20355;-36
2023/06/14 01:02:51;;;;;;;3.05;2.17;;;20.10;96.50;;;;;;5073862;28;20027;-35
2023/06/14 01:05:17;;;;;;;3.90;2.17;;;20.10;96.50;;;;;;5074003;28;20033;-35
2023/06/14 01:08:03;;;;;;;3.42;2.53;;;20.10;96.50;;;;;;5073439;28;20064;-36
2023/06/14 01:10:49;;;;;;;3.58;2.40;;;20.10;96.50;;;;;;5073564;28;20020;-34
2023/06/14 01:13:31;;;;;;;6.82;3.05;;;20.10;96.40;;;;;;5074049;28;20025;-35
2023/06/14 01:15:57;;;;;;;4.38;2.53;;;20.00;96.40;;;;;;5074019;28;20036;-35
2023/06/14 01:18:25;;;;;;;3.95;2.75;;;20.00;96.40;;;;;;5073693;28;20028;-35
2023/06/14 01:20:54;;;;;;;5.45;2.35;;;20.10;96.40;;;;;;5073516;28;20449;-35
2023/06/14 01:23:22;;;;;;;4.35;2.50;;;20.00;96.30;;;;;;5074029;28;20523;-34
2023/06/14 01:25:52;;;;;;;5.32;2.72;;;20.00;96.40;;;;;;5073432;28;20017;-36
2023/06/14 01:28:20;;;;;;;4.40;2.72;;;20.00;96.30;;;;;;5073491;28;20032;-35
2023/06/14 01:30:48;;;;;;;3.10;2.55;;;20.00;96.30;;;;;;5073369;28;20025;-37
2023/06/14 01:33:27;;;;;;;2.50;2.30;;;20.00;96.30;;;;;;5073293;28;20025;-35
2023/06/14 01:35:54;;;;;;;3.10;2.53;;;20.00;96.20;;;;;;5073398;28;20432;-37
2023/06/14 01:38:23;;;;;;;3.17;2.55;;;20.00;96.20;;;;;;5073384;28;20046;-34
2023/06/14 01:40:50;;;;;;;3.38;2.40;;;20.00;96.50;;;;;;5072995;28;20103;-35
2023/06/14 01:43:17;;;;;;;5.05;2.30;;;20.00;96.20;;;;;;5073156;28;20039;-34
2023/06/14 01:45:45;;;;;;;3.97;2.47;;;20.00;96.20;;;;;;5073119;28;20028;-36
2023/06/14 01:48:12;;;;;;;3.60;2.67;;;20.00;96.20;;;;;;5073145;28;20287;-35
2023/06/14 01:50:37;;;;;;;3.15;2.22;;;20.00;96.10;;;;;;5072877;28;20028;-35
2023/06/14 01:53:06;;;;;;;3.88;2.40;;;20.00;96.10;;;;;;5072993;28;20074;-35
2023/06/14 01:55:37;;;;;;;2.95;2.42;;;20.00;96.20;;;;;;5072972;28;20036;-36
2023/06/14 01:58:05;;;;;;;4.32;2.35;;;20.00;96.10;;;;;;5072954;28;20125;-36
2023/06/14 02:00:30;;;;;;;3.40;2.40;;;20.00;96.10;;;;;;5072602;28;20032;-35
2023/06/14 02:02:56;;;;;;;3.42;2.50;;;20.00;96.10;;;;;;5072667;28;20078;-37
2023/06/14 02:05:22;;;;;;;4.88;2.50;;;20.00;96.10;;;;;;5072737;28;20021;-36
2023/06/14 02:07:48;;;;;;;3.28;2.60;;;20.00;96.10;;;;;;5072574;28;20410;-37
2023/06/14 02:10:15;;;;;;;3.90;2.60;;;20.00;96.00;;;;;;5072260;28;20021;-35
2023/06/14 02:12:41;;;;;;;3.15;2.33;;;20.00;96.00;;;;;;5072621;28;20017;-35
2023/06/14 02:15:08;;;;;;;3.72;2.75;;;19.90;96.00;;;;;;5072419;28;20069;-35
2023/06/14 02:17:34;;;;;;;3.88;2.38;;;19.90;96.00;;;;;;5072498;28;20487;-35
2023/06/14 02:20:00;;;;;;;3.72;2.60;;;20.00;95.90;;;;;;5071328;28;20021;-37
2023/06/14 02:22:26;;;;;;;4.13;2.42;;;19.90;95.80;;;;;;5072399;28;20021;-35
2023/06/14 02:24:52;;;;;;;3.92;2.70;;;19.90;95.80;;;;;;5072601;28;20387;-36
2023/06/14 02:27:18;;;;;;;6.43;2.58;;;19.90;95.80;;;;;;5072240;28;20025;-34
2023/06/14 02:29:43;;;;;;;6.50;2.75;;;19.90;95.90;;;;;;5072154;28;20031;-34
2023/06/14 02:32:09;;;;;;;4.38;2.35;;;19.90;95.90;;;;;;5072042;28;20123;-37
2023/06/14 02:34:35;;;;;;;3.40;2.33;;;19.90;95.90;;;;;;5072230;28;20048;-37
2023/06/14 02:37:02;;;;;;;4.55;2.85;;;19.90;95.80;;;;;;5071939;28;20027;-36
2023/06/14 02:39:29;;;;;;;3.45;2.78;;;19.90;95.80;;;;;;5071942;28;20112;-36
2023/06/14 02:41:54;;;;;;;4.60;2.53;;;19.90;95.80;;;;;;5071737;28;20035;-34
2023/06/14 02:44:25;;;;;;;3.88;2.58;;;19.90;95.90;;;;;;5071775;28;20032;-35
2023/06/14 02:46:51;;;;;;;3.65;2.45;;;19.90;95.80;;;;;;5071893;28;20031;-34
2023/06/14 02:49:16;;;;;;;4.13;2.35;;;19.90;95.80;;;;;;5072040;28;20391;-35
2023/06/14 02:51:42;;;;;;;2.47;2.17;;;19.90;96.10;;;;;;5071751;28;20497;-34
2023/06/14 02:54:08;;;;;;;3.28;2.42;;;19.90;95.70;;;;;;5071787;28;20037;-36
2023/06/14 02:56:33;;;;;;;3.97;2.50;;;19.90;95.70;;;;;;5071751;28;20051;-35
2023/06/14 02:59:00;;;;;;;3.85;2.55;;;19.90;95.70;;;;;;5071695;28;20123;-36
2023/06/14 03:01:34;;;;;;;5.97;2.45;;;19.90;95.50;;;;;;5071775;28;20030;-35
2023/06/14 03:04:03;;;;;;;4.00;2.70;;;19.90;95.50;;;;;;5071819;28;20078;-35
2023/06/14 03:06:33;;;;;;;3.80;2.63;;;19.90;95.50;;;;;;5071621;28;20036;-37
2023/06/14 03:08:59;;;;;;;3.13;2.50;;;19.90;95.60;;;;;;5071726;28;20047;-35
2023/06/14 03:11:26;;;;;;;3.85;2.72;;;19.90;95.60;;;;;;5071378;28;20364;-35
2023/06/14 03:13:52;;;;;;;2.78;2.22;;;19.90;95.60;;;;;;5071586;28;20037;-36
2023/06/14 03:16:23;;;;;;;5.22;2.78;;;19.90;95.50;;;;;;5071299;28;20471;-35
2023/06/14 03:18:50;;;;;;;3.92;2.67;;;19.90;95.50;;;;;;5071637;28;20112;-35
2023/06/14 03:21:16;;;;;;;4.65;2.38;;;19.80;95.50;;;;;;5071324;28;20564;-34
2023/06/14 03:23:43;;;;;;;3.08;2.30;;;19.80;95.40;;;;;;5071815;28;20073;-36
2023/06/14 03:26:08;;;;;;;4.40;2.78;;;19.80;95.50;;;;;;5071316;28;20029;-34
2023/06/14 03:28:34;;;;;;;4.15;2.33;;;19.80;95.50;;;;;;5071442;28;20028;-34
2023/06/14 03:31:01;;;;;;;3.78;2.60;;;19.80;95.50;;;;;;5071081;28;20521;-36
2023/06/14 03:33:27;;;;;;;3.65;2.42;;;19.80;95.40;;;;;;5071354;28;20016;-36
2023/06/14 03:35:52;;;;;;;6.47;2.65;;;19.80;95.40;;;;;;5071369;28;20070;-34
2023/06/14 03:38:18;;;;;;;2.95;2.38;;;19.80;95.40;;;;;;5071420;28;20546;-35
2023/06/14 03:40:44;;;;;;;3.50;2.42;;;19.80;95.40;;;;;;5071094;28;20111;-36
2023/06/14 03:43:10;;;;;;;5.20;2.58;;;19.80;95.40;;;;;;5071173;28;20029;-37
2023/06/14 03:45:35;;;;;;;5.43;2.63;;;19.80;95.40;;;;;;5071357;28;20085;-37
2023/06/14 03:48:02;;;;;;;4.57;2.65;;;19.80;95.30;;;;;;5069748;28;20021;-34
2023/06/14 03:50:28;;;;;;;3.30;2.28;;;19.80;95.40;;;;;;5070996;28;20025;-35
2023/06/14 03:52:54;;;;;;;3.80;2.53;;;19.80;95.30;;;;;;5071183;28;20152;-35
2023/06/14 03:55:19;;;;;;;3.15;2.78;;;19.80;95.30;;;;;;5071168;28;20103;-34
2023/06/14 03:57:45;;;;;;;6.28;2.90;;;19.80;95.30;;;;;;5071022;28;20025;-34
2023/06/14 04:00:12;;;;;;;6.20;2.55;;;19.80;95.30;;;;;;5071028;28;20070;-35
2023/06/14 04:02:38;;;;;;;4.32;2.45;;;19.80;95.30;;;;;;5071108;28;20107;-34
2023/06/14 04:05:08;;;;;;;4.57;2.63;;;19.80;95.30;;;;;;5071056;28;20104;-33
2023/06/14 04:07:39;;;;;;;3.28;2.60;;;19.80;95.20;;;;;;5071313;28;20035;-34
2023/06/14 04:10:06;;;;;;;4.30;2.30;;;19.80;95.20;;;;;;5070885;28;20020;-37
2023/06/14 04:12:32;;;;;;;3.80;2.60;;;19.80;95.20;;;;;;5071028;28;20100;-35
2023/06/14 04:14:57;;;;;;;3.45;2.50;;;19.80;95.20;;;;;;5071126;28;20168;-36
2023/06/14 04:17:23;;;;;;;2.70;2.40;;;19.80;95.40;;;;;;5070765;28;20100;-35
2023/06/14 04:19:49;;;;;;;3.75;2.85;;;19.80;95.30;;;;;;5070903;28;20085;-34
2023/06/14 04:22:14;;;;;;;4.15;2.25;;;19.80;95.30;;;;;;5070658;28;20383;-34
2023/06/14 04:24:42;;;;;;;4.15;2.67;;;19.80;95.30;;;;;;5071250;28;20033;-34
2023/06/14 04:27:08;;;;;;;4.78;2.58;;;19.80;95.40;;;;;;5070750;28;20027;-35
2023/06/14 04:29:33;;;;;;;2.97;2.45;;;19.80;95.40;;;;;;5070772;28;20020;-36
2023/06/14 04:31:59;;;;;;;3.53;2.35;;;19.80;95.40;;;;;;5070590;28;20046;-36
2023/06/14 04:34:32;;;;;;;2.97;2.33;;;19.80;95.50;;;;;;5070788;28;20470;-36
2023/06/14 04:36:59;;;;;;;5.90;3.08;;;19.80;95.40;;;;;;5070608;28;20170;-37
2023/06/14 04:39:25;;;;;;;4.13;2.10;;;19.70;95.40;;;;;;5070643;28;20016;-34
2023/06/14 04:41:56;;;;;;;8.15;2.95;;;19.80;95.50;;;;;;5070798;28;20437;-36
2023/06/14 04:44:29;;;;;;;3.58;2.78;;;19.50;91.90;;;;;;5073952;28;20048;-39
2023/06/14 04:46:58;;;;;;;7.82;2.92;;;18.90;92.00;;;;;;5074157;28;20557;-36
2023/06/14 04:49:24;;;;;;;8.57;3.10;;;18.60;92.80;;;;;;5074083;28;20048;-37
2023/06/14 04:51:59;;;;;;;4.65;2.80;;;18.60;93.00;;;;;;5073775;28;20055;-36
2023/06/14 04:54:27;;;;;;;9.15;3.42;;;18.60;93.30;;;;;;5074035;28;20052;-37
2023/06/14 04:56:54;;;;;;;5.45;2.90;;;18.70;93.50;;;;;;5073829;28;20032;-37
2023/06/14 04:59:22;;;;;;;4.78;3.10;;;18.90;93.70;;;;;;5073997;28;20021;-35
2023/06/14 05:01:49;;;;;;;6.53;2.92;;;18.90;93.80;;;;;;5073577;28;20035;-36
2023/06/14 05:04:15;;;;;;;5.25;3.03;;;19.00;93.90;;;;;;5073776;28;20035;-36
2023/06/14 05:06:44;;;;;;;4.10;2.80;;;19.10;93.90;;;;;;5087484;23;20052;-37
2023/06/14 05:09:14;;;;;;;3.33;2.53;;;19.20;94.00;;;;;;5054549;28;20102;-35
2023/06/14 05:11:39;;;;;;;9.25;2.92;;;19.20;94.30;;;;;;5053223;28;20029;-35
2023/06/14 05:14:06;;;;;;;3.50;2.58;;;19.20;94.00;;;;;;5053614;28;20025;-37
2023/06/14 05:16:31;;;;;;;5.63;2.85;;;19.20;94.10;;;;;;5053571;28;20021;-35
2023/06/14 05:18:58;;;;;;;7.47;3.15;;;19.30;94.20;;;;;;5053495;28;20063;-39
2023/06/14 05:21:24;;;;;;;5.57;2.92;;;19.30;94.20;;;;;;5053889;28;20032;-33
2023/06/14 05:23:51;;;;;;;4.25;2.97;;;19.40;94.20;;;;;;5053579;28;20147;-35
2023/06/14 05:26:16;;;;;;;4.43;2.90;;;19.40;94.20;;;;;;5053359;28;20028;-33
2023/06/14 05:28:42;;;;;;;5.70;2.95;;;19.40;94.20;;;;;;5053434;28;20025;-33
2023/06/14 05:31:08;;;;;;;5.32;2.97;;;19.40;94.20;;;;;;5053459;28;20147;-37
2023/06/14 05:33:33;;;;;;;7.95;3.30;;;19.40;94.30;;;;;;5053517;28;20025;-32
2023/06/14 05:35:59;;;;;;;6.50;3.38;;;19.30;93.30;;;;;;5053032;28;20037;-33
2023/06/14 05:38:25;;;;;;;5.50;3.25;;;18.90;93.40;;;;;;5053167;28;20103;-36
2023/06/14 05:40:51;;;;;;;11.73;3.30;;;18.50;93.70;;;;;;5052810;28;20031;-33
2023/06/14 05:43:16;;;;;;;6.60;3.25;;;18.00;94.30;;;;;;5052920;28;20029;-36
2023/06/14 05:45:42;;;;;;;17.90;3.92;;;17.80;94.60;;;;;;5051398;28;20025;-33
2023/06/14 05:48:08;;;;;;;8.80;3.33;;;17.60;94.90;;;;;;5052897;28;20029;-34
2023/06/14 05:50:33;;;;;;;7.70;3.35;;;17.40;95.30;;;;;;5052626;28;20013;-34
2023/06/14 05:52:59;;;;;;;9.10;3.50;;;17.30;95.60;;;;;;5052890;28;20037;-34
2023/06/14 05:55:25;;;;;;;9.38;3.63;;;17.20;95.80;;;;;;5052641;28;20029;-38
2023/06/14 05:57:51;;;;;;;11.80;3.47;;;17.20;95.60;;;;;;5052724;28;20442;-35
2023/06/14 06:00:17;;;;;;;9.63;3.55;;;17.20;95.80;;;;;;5052468;28;20472;-37
2023/06/14 06:02:44;;;;;;;5.25;3.60;;;17.20;96.00;;;;;;5051310;28;20025;-36
2023/06/14 06:05:13;;;;;;;6.68;3.10;;;17.20;96.00;;;;;;5052548;28;20024;-36
2023/06/14 06:07:42;;;;;;;32.47;5.20;;;17.40;95.90;;;;;;5052412;28;20032;-33
2023/06/14 06:10:08;;;;;;;17.70;3.80;;;17.50;95.80;;;;;;5052374;28;20396;-35
2023/06/14 06:12:33;;;;;;;27.48;4.70;;;17.60;95.70;;;;;;5052421;28;20029;-35
2023/06/14 06:14:59;;;;;;;10.15;4.03;;;17.70;95.50;;;;;;5052343;28;20036;-33
2023/06/14 06:17:26;;;;;;;9.73;4.00;;;17.70;95.30;;;;;;5052225;28;20036;-33
2023/06/14 06:19:51;;;;;;;7.35;3.53;;;17.80;95.00;;;;;;5052347;28;20033;-33
2023/06/14 06:22:17;;;;;;;6.38;3.15;;;17.80;95.20;;;;;;5052161;28;20029;-35
2023/06/14 06:24:43;;;;;;;9.02;3.15;;;17.80;95.00;;;;;;5052111;28;20033;-33
2023/06/14 06:27:08;;;;;;;24.55;3.92;;;17.80;94.90;;;;;;5052078;28;20025;-34
2023/06/14 06:29:35;;;;;;;8.73;3.53;;;17.90;95.00;;;;;;5052011;28;20446;-40
2023/06/14 06:32:01;;;;;;;11.07;3.30;;;17.90;94.80;;;;;;5051903;28;20108;-35
2023/06/14 06:34:27;;;;;;;7.93;3.67;;;17.90;94.70;;;;;;5051982;28;20068;-40
2023/06/14 06:36:53;;;;;;;10.25;3.83;;;17.90;94.70;;;;;;5051967;28;20044;-38
2023/06/14 06:39:18;;;;;;;7.97;3.08;;;18.00;94.70;;;;;;5051967;28;20025;-41
2023/06/14 06:41:44;;;;;;;7.88;3.30;;;18.10;94.80;;;;;;5051732;28;20024;-39
2023/06/14 06:44:10;;;;;;;8.38;3.08;;;18.20;94.80;;;;;;5051699;28;20029;-39
2023/06/14 06:46:39;;;;;;;11.57;3.45;;;18.30;94.70;;;;;;5051920;28;20022;-33
2023/06/14 06:49:06;;;;;;;9.02;3.40;;;18.40;94.70;;;;;;5051737;28;20013;-35
2023/06/14 06:51:31;;;;;;;7.13;3.13;;;18.50;94.70;;;;;;5051473;28;20021;-35
2023/06/14 06:53:58;;;;;;;8.05;2.95;;;18.50;94.70;;;;;;5050874;28;20029;-38
2023/06/14 06:56:24;;;;;;;9.65;3.20;;;18.60;94.70;;;;;;5051565;28;20038;-36
2023/06/14 06:58:50;;;;;;;5.63;2.83;;;18.70;94.60;;;;;;5051626;28;20028;-37
2023/06/14 07:01:17;;;;;;;5.80;3.03;;;18.80;94.70;;;;;;5051468;28;20028;-38
2023/06/14 07:03:43;;;;;;;3.83;3.00;;;18.80;94.60;;;;;;5051479;28;20472;-33
2023/06/14 07:06:08;;;;;;;6.28;3.08;;;18.90;94.70;;;;;;5050877;28;20036;-38
2023/06/14 07:08:35;;;;;;;9.40;3.30;;;18.90;94.60;;;;;;5051508;28;20032;-33
2023/06/14 07:11:02;;;;;;;5.03;3.13;;;19.00;94.70;;;;;;5051136;28;20101;-35
2023/06/14 07:13:27;;;;;;;7.95;3.20;;;19.00;93.90;;;;;;5051508;28;20491;-34
2023/06/14 07:16:00;;;;;;;5.45;2.80;;;19.00;93.60;;;;;;5051411;28;20033;-38
2023/06/14 07:18:26;;;;;;;4.78;2.88;;;19.00;93.60;;;;;;5051600;28;20388;-36
2023/06/14 07:20:53;;;;;;;6.10;3.28;;;19.00;93.70;;;;;;5051257;28;20446;-32
2023/06/14 07:23:19;;;;;;;4.93;3.15;;;19.00;93.90;;;;;;5051347;28;20028;-33
2023/06/14 07:25:45;;;;;;;8.60;3.13;;;19.10;94.00;;;;;;5051546;28;20013;-38
2023/06/14 07:28:11;;;;;;;7.70;2.80;;;19.10;94.10;;;;;;5051273;28;20460;-35
2023/06/14 07:30:36;;;;;;;10.63;3.20;;;19.10;94.20;;;;;;5051045;28;20021;-37
2023/06/14 07:33:02;;;;;;;8.52;3.05;;;19.20;94.30;;;;;;5050063;28;20435;-33
2023/06/14 07:35:28;;;;;;;5.35;2.88;;;19.20;94.40;;;;;;5051540;28;20109;-33
2023/06/14 07:37:53;;;;;;;7.13;3.17;;;19.30;94.50;;;;;;5051111;28;20361;-33
2023/06/14 07:40:19;;;;;;;8.30;3.00;;;19.30;94.60;;;;;;5050826;28;20024;-36
2023/06/14 07:42:45;;;;;;;3.55;2.63;;;19.30;94.70;;;;;;5051085;28;20395;-39
2023/06/14 07:45:13;;;;;;;3.75;2.85;;;19.30;94.80;;;;;;5051000;28;20052;-34
2023/06/14 07:47:39;;;;;;;6.97;2.92;;;19.40;94.90;;;;;;5051389;28;20029;-36
2023/06/14 07:50:05;;;;;;;6.63;2.70;;;19.40;95.00;;;;;;5051161;28;20021;-36
2023/06/14 07:52:31;;;;;;;4.85;3.10;;;19.40;95.10;;;;;;5051033;28;20032;-37
2023/06/14 07:54:56;;;;;;;3.80;2.70;;;19.40;95.20;;;;;;5050965;28;20033;-33
2023/06/14 07:57:22;;;;;;;4.35;3.05;;;19.40;95.30;;;;;;5051068;28;20076;-38
2023/06/14 07:59:48;;;;;;;4.40;2.90;;;19.50;95.40;;;;;;5050868;28;20025;-33
2023/06/14 08:02:14;;;;;;;4.78;3.30;;;19.50;95.50;;;;;;5050710;28;20028;-35
2023/06/14 08:04:40;;;;;;;3.75;2.47;;;19.50;95.60;;;;;;5050903;28;20029;-36
2023/06/14 08:07:06;;;;;;;4.80;2.85;;;19.50;95.70;;;;;;5050884;28;20025;-32
2023/06/14 08:09:32;;;;;;;4.85;2.90;;;19.50;95.80;;;;;;5050650;28;20025;-36
2023/06/14 08:11:58;;;;;;;4.85;2.90;;;19.50;96.00;;;;;;5050684;28;20020;-34
2023/06/14 08:14:23;;;;;;;4.50;2.83;;;19.60;96.10;;;;;;5050776;28;20037;-34
2023/06/14 08:16:49;;;;;;;5.22;2.60;;;19.50;96.20;;;;;;5050676;28;20025;-35
2023/06/14 08:19:16;;;;;;;5.15;2.63;;;19.60;96.40;;;;;;5053983;28;20052;-34
2023/06/14 08:21:43;;;;;;;5.47;2.80;;;19.60;96.40;;;;;;5054657;28;20039;-38
2023/06/14 08:24:12;;;;;;;4.13;2.53;;;19.60;96.50;;;;;;5054439;28;20492;-36
2023/06/14 08:26:38;;;;;;;3.08;2.58;;;19.60;96.60;;;;;;5053180;28;20017;-35
2023/06/14 08:29:04;;;;;;;4.90;2.83;;;19.60;96.70;;;;;;5054537;28;20082;-38
2023/06/14 08:31:31;;;;;;;6.35;2.70;;;19.70;96.80;;;;;;5054208;28;20025;-34
2023/06/14 08:33:57;;;;;;;6.05;2.92;;;19.70;96.80;;;;;;5054429;28;20021;-36
2023/06/14 08:36:23;;;;;;;4.75;2.42;;;19.70;96.90;;;;;;5054240;28;20048;-40
2023/06/14 08:38:48;;;;;;;4.18;3.00;;;19.70;97.00;;;;;;5054240;28;20025;-34
2023/06/14 08:41:20;;;;;;;4.55;2.53;;;19.70;97.00;;;;;;5054439;28;20025;-33
2023/06/14 08:43:46;;;;;;;5.85;2.72;;;19.70;97.10;;;;;;5054132;28;20017;-37
2023/06/14 08:46:16;;;;;;;3.60;2.92;;;19.70;97.20;;;;;;5054057;28;20029;-34
2023/06/14 08:48:43;;;;;;;4.90;2.65;;;19.70;97.60;;;;;;5054512;28;20091;-37
2023/06/14 08:51:10;;;;;;;4.03;2.78;;;19.80;97.40;;;;;;5054415;28;20502;-38
2023/06/14 08:53:41;;;;;;;4.18;2.63;;;19.80;97.40;;;;;;5054057;28;20110;-36
2023/06/14 08:56:13;;;;;;;3.67;2.42;;;19.80;97.50;;;;;;5053979;28;20151;-34
2023/06/14 08:58:45;;;;;;;3.50;2.60;;;19.80;97.50;;;;;;5053940;28;20024;-37
2023/06/14 09:01:16;;;;;;;2.80;2.35;;;19.80;97.90;;;;;;5053734;28;20060;-37
2023/06/14 09:03:42;;;;;;;3.40;2.50;;;19.80;97.60;;;;;;5054440;28;20051;-33
2023/06/14 09:06:13;;;;;;;5.28;2.40;;;19.80;97.70;;;;;;5053614;28;20476;-34
2023/06/14 09:08:42;;;;;;;3.40;2.70;;;19.80;97.70;;;;;;5053738;28;20032;-36
2023/06/14 09:11:10;;;;;;;4.70;2.92;;;19.90;97.80;;;;;;5053521;28;20021;-35
2023/06/14 09:13:35;;;;;;;3.42;2.50;;;19.90;97.80;;;;;;5053670;28;20044;-34
2023/06/14 09:16:01;;;;;;;5.38;2.47;;;19.90;97.90;;;;;;5053368;28;20476;-37
2023/06/14 09:18:37;;;;;;;3.25;2.63;;;19.90;97.90;;;;;;5053563;28;20079;-32
2023/06/14 09:21:05;;;;;;;3.92;2.97;;;19.90;98.00;;;;;;5053322;28;20029;-34
2023/06/14 09:23:37;;;;;;;2.75;2.38;;;19.90;98.00;;;;;;5053404;28;20032;-33
2023/06/14 09:26:09;;;;;;;3.90;2.60;;;19.90;98.40;;;;;;5053416;28;20407;-35
2023/06/14 09:28:36;;;;;;;4.20;2.70;;;19.90;98.10;;;;;;5052779;28;20083;-36
2023/06/14 09:31:02;;;;;;;3.15;2.45;;;20.00;98.20;;;;;;5053145;28;20498;-35
2023/06/14 09:33:28;;;;;;;4.10;2.90;;;20.00;98.20;;;;;;5053339;28;20549;-37
2023/06/14 09:35:56;;;;;;;3.90;2.53;;;20.00;98.20;;;;;;5053464;28;20113;-36
2023/06/14 09:38:22;;;;;;;4.85;2.53;;;20.00;98.30;;;;;;5053225;28;20025;-40
2023/06/14 09:40:49;;;;;;;3.00;2.38;;;20.00;98.30;;;;;;5053278;28;20091;-32
2023/06/14 09:43:15;;;;;;;4.38;2.63;;;20.00;98.30;;;;;;5053010;28;20024;-34
2023/06/14 09:45:40;;;;;;;4.45;2.70;;;20.00;98.40;;;;;;5053364;28;20027;-33
2023/06/14 09:48:08;;;;;;;3.20;2.53;;;20.00;98.40;;;;;;5052931;28;20021;-35
2023/06/14 09:50:34;;;;;;;3.17;2.45;;;20.00;98.80;;;;;;5052812;28;20483;-34
2023/06/14 09:53:06;;;;;;;3.75;2.40;;;20.10;98.50;;;;;;5052927;28;20124;-32
2023/06/14 09:55:35;;;;;;;4.13;2.40;;;20.10;98.50;;;;;;5052840;28;20052;-33
2023/06/14 09:58:06;;;;;;;4.18;2.40;;;20.10;98.50;;;;;;5052699;28;20036;-35
2023/06/14 10:00:33;;;;;;;2.88;2.40;;;20.10;98.60;;;;;;5052717;28;20021;-33
2023/06/14 10:03:06;;;;;;;2.83;2.40;;;20.10;98.60;;;;;;5052987;28;20025;-35
2023/06/14 10:05:33;;;;;;;5.28;2.70;;;20.10;98.60;;;;;;5052712;28;20096;-34
2023/06/14 10:08:09;;;;;;;3.63;2.55;;;20.20;98.60;;;;;;5052429;28;20036;-34
2023/06/14 10:10:34;;;;;;;5.38;2.67;;;20.20;98.60;;;;;;5052538;28;20029;-34
2023/06/14 10:13:01;;;;;;;2.95;2.50;;;20.20;98.60;;;;;;5052559;28;20032;-37
2023/06/14 10:15:32;;;;;;;3.28;2.17;;;20.20;98.60;;;;;;5052772;28;20428;-34
2023/06/14 10:18:42;;;;;;;2.85;2.55;;;20.20;98.70;;;;;;5052334;28;20484;-37
2023/06/14 10:21:36;;;;;;;3.45;2.33;;;20.20;98.60;;;;;;4991632;28;20065;-34
2023/06/14 10:24:06;;;;;;;3.50;2.10;;;20.20;98.60;;;;;;5051299;28;20037;-36
2023/06/14 10:26:32;;;;;;;4.85;2.28;;;20.20;98.60;;;;;;5052142;28;20755;-34
2023/06/14 10:29:09;;;;;;;3.28;2.45;;;20.20;98.60;;;;;;5052056;28;20060;-35
2023/06/14 10:31:42;;;;;;;4.45;2.45;;;20.20;98.60;;;;;;5052023;28;20021;-33
2023/06/14 10:34:08;;;;;;;4.70;2.20;;;20.30;98.60;;;;;;5052171;28;20033;-37
2023/06/14 10:36:35;;;;;;;4.28;2.25;;;20.30;98.60;;;;;;5052004;28;20034;-34
2023/06/14 10:39:17;;;;;;;2.80;2.40;;;20.30;98.60;;;;;;5052049;28;20472;-37
2023/06/14 10:41:54;;;;;;;3.22;2.20;;;20.30;98.60;;;;;;5051038;28;20029;-38
2023/06/14 10:44:19;;;;;;;3.97;2.50;;;20.30;98.60;;;;;;5051904;28;20025;-37
2023/06/14 10:46:48;;;;;;;4.38;2.47;;;20.30;98.60;;;;;;5051844;28;20124;-36
2023/06/14 10:49:19;;;;;;;2.78;2.30;;;20.30;98.70;;;;;;5052140;28;20067;-34
2023/06/14 10:51:49;;;;;;;3.70;2.40;;;20.30;98.60;;;;;;5051660;28;20032;-41
2023/06/14 10:54:20;;;;;;;4.93;2.38;;;20.30;98.60;;;;;;5052029;28;20036;-38
2023/06/14 10:56:52;;;;;;;4.28;2.28;;;20.30;98.60;;;;;;5052268;28;20049;-38
2023/06/14 10:59:19;;;;;;;2.53;2.22;;;20.30;98.60;;;;;;5051757;28;20036;-36
2023/06/14 11:02:14;;;;;;;2.78;2.30;;;20.30;98.60;;;;;;5051426;28;20053;-35
2023/06/14 11:04:55;;;;;;;3.00;2.15;;;20.30;98.60;;;;;;5051553;28;20400;-34
2023/06/14 11:07:21;;;;;;;2.95;2.60;;;20.30;98.60;;;;;;5090316;23;20052;-40
2023/06/14 11:10:29;;;;;;;2.88;2.38;;;20.30;98.60;;;;;;5051283;28;20025;-38
2023/06/14 11:12:56;;;;;;;3.15;2.35;;;20.30;98.60;;;;;;5051534;28;20025;-39
2023/06/14 11:15:28;;;;;;;2.60;2.30;;;20.40;98.70;;;;;;5051430;28;20049;-39
2023/06/14 11:17:56;;;;;;;3.10;2.40;;;20.40;98.70;;;;;;5051336;28;20074;-40
2023/06/14 11:20:25;;;;;;;3.70;2.55;;;20.40;98.70;;;;;;5051231;28;20028;-40
2023/06/14 11:22:52;;;;;;;4.57;2.17;;;20.40;98.60;;;;;;5051281;28;20155;-41
2023/06/14 11:25:17;;;;;;;3.53;2.30;;;20.40;99.00;;;;;;5051160;28;20032;-40
2023/06/14 11:27:44;;;;;;;3.00;2.28;;;20.40;98.60;;;;;;5051165;28;20457;-39
2023/06/14 11:30:10;;;;;;;3.97;2.35;;;20.40;98.70;;;;;;5049912;28;20039;-39
2023/06/14 11:32:37;;;;;;;7.25;2.42;;;20.40;98.60;;;;;;5051338;28;20486;-37
2023/06/14 11:35:04;;;;;;;6.45;2.58;;;20.50;97.00;;;;;;5051644;28;20037;-39
2023/06/14 11:37:34;;;;;;;4.28;2.83;;;20.50;96.70;;;;;;5051143;28;20029;-38
2023/06/14 11:40:00;;;;;;;6.68;3.00;;;20.50;96.70;;;;;;5050967;28;20024;-38
2023/06/14 11:42:29;;;;;;;4.53;2.85;;;20.50;96.60;;;;;;5051465;28;20507;-39
2023/06/14 11:44:56;;;;;;;5.05;2.47;;;20.50;96.60;;;;;;5051002;28;20106;-39
2023/06/14 11:47:22;;;;;;;5.35;2.70;;;20.50;96.70;;;;;;5051102;28;20017;-39
2023/06/14 11:49:48;;;;;;;5.63;2.92;;;20.50;96.80;;;;;;5051035;28;20411;-41
2023/06/14 11:52:14;;;;;;;3.17;2.42;;;20.50;96.90;;;;;;5052466;28;20029;-41
2023/06/14 11:54:41;;;;;;;3.35;2.58;;;20.50;97.00;;;;;;5055399;28;20479;-41
2023/06/14 11:57:10;;;;;;;4.93;2.67;;;20.50;97.10;;;;;;5055133;28;20033;-38
2023/06/14 11:59:40;;;;;;;3.00;2.70;;;20.50;97.10;;;;;;5055412;28;20039;-39
2023/06/14 12:02:06;;;;;;;2.80;2.47;;;20.50;97.20;;;;;;5054839;28;20103;-37
2023/06/14 12:04:32;;;;;;;3.22;2.60;;;20.50;97.20;;;;;;5054943;28;20017;-39
2023/06/14 12:07:15;;;;;;;3.90;2.40;;;20.50;97.20;;;;;;5054639;28;20087;-39
2023/06/14 12:10:07;;;;;;;3.38;2.55;;;20.50;97.20;;;;;;5054895;28;20424;-39
2023/06/14 12:12:38;;;;;;;5.70;1.98;;;20.50;97.30;;;;;;5054869;28;20025;-39
2023/06/14 12:15:09;;;;;;;4.38;2.67;;;20.50;97.30;;;;;;5054704;28;20032;-39
2023/06/14 12:17:36;;;;;;;3.90;2.40;;;20.50;97.40;;;;;;5054622;28;20021;-39
2023/06/14 12:20:16;;;;;;;3.35;2.42;;;20.50;97.40;;;;;;5054491;28;20052;-39
2023/06/14 12:22:56;;;;;;;6.03;2.78;;;20.50;97.40;;;;;;5054621;28;20032;-39
2023/06/14 12:25:34;;;;;;;2.80;2.35;;;20.50;97.40;;;;;;5054507;28;20025;-38
2023/06/14 12:28:07;;;;;;;4.93;2.60;;;20.50;97.50;;;;;;5054786;28;20392;-39
2023/06/14 12:30:35;;;;;;;3.63;2.50;;;20.50;97.50;;;;;;5054503;28;20040;-39
2023/06/14 12:33:01;;;;;;;3.40;2.35;;;20.50;97.50;;;;;;5054556;28;20059;-40
2023/06/14 12:35:27;;;;;;;2.85;2.53;;;20.50;97.50;;;;;;5054461;28;20039;-38
2023/06/14 12:37:52;;;;;;;4.57;2.63;;;20.50;97.60;;;;;;5052916;28;20048;-39
2023/06/14 12:40:18;;;;;;;2.80;2.35;;;20.50;97.60;;;;;;5054075;28;20338;-39
2023/06/14 12:42:47;;;;;;;5.47;2.80;;;20.50;97.60;;;;;;5054334;28;20047;-39
2023/06/14 12:45:13;;;;;;;4.03;2.60;;;20.50;97.70;;;;;;5054148;28;20063;-39
2023/06/14 12:47:39;;;;;;;4.40;2.72;;;20.50;97.60;;;;;;5054022;28;20025;-39
2023/06/14 12:50:05;;;;;;;5.22;2.60;;;20.50;97.70;;;;;;5053949;28;20078;-40